createdAt,value
2023-07-12T00:01:34.469Z,97758.80
2023-07-12T00:04:05.239Z,97757.74
2023-07-12T00:06:40.348Z,97759.37
2023-07-12T00:09:15.394Z,97757.45
2023-07-12T00:11:45.683Z,97764.77
2023-07-12T00:14:15.994Z,97760.80
2023-07-12T00:16:46.298Z,97763.30
2023-07-12T00:19:17.704Z,97757.60
2023-07-12T00:21:47.986Z,97745.04
2023-07-12T00:24:18.274Z,97749.39
2023-07-12T00:26:48.597Z,97746.16
2023-07-12T00:29:18.960Z,97743.48
2023-07-12T00:31:49.232Z,97738.75
2023-07-12T00:34:19.474Z,97736.19
2023-07-12T00:36:49.704Z,97740.77
2023-07-12T00:39:19.896Z,97739.96
2023-07-12T00:42:03.844Z,97740.70
2023-07-12T00:44:37.690Z,97738.95
2023-07-12T00:47:09.867Z,97734.55
2023-07-12T00:49:40.196Z,97732.63
2023-07-12T00:52:15.207Z,97722.41
2023-07-12T00:54:55.504Z,97718.70
2023-07-12T00:57:27.000Z,97717.95
2023-07-12T00:59:59.362Z,97721.98
2023-07-12T01:02:30.071Z,97717.60
2023-07-12T01:05:01.997Z,97722.26
2023-07-12T01:07:33.533Z,97728.16
2023-07-12T01:10:04.270Z,97732.15
2023-07-12T01:12:34.518Z,97733.62
2023-07-12T01:15:07.000Z,97731.55
2023-07-12T01:17:37.317Z,97736.81
2023-07-12T01:20:09.521Z,97737.32
2023-07-12T01:22:39.813Z,97741.04
2023-07-12T01:25:11.189Z,97746.54
2023-07-12T01:27:41.467Z,97748.33
2023-07-12T01:30:13.536Z,97747.14
2023-07-12T01:32:44.231Z,97744.28
2023-07-12T01:35:16.584Z,97742.18
2023-07-12T01:37:46.822Z,97744.62
2023-07-12T01:40:17.272Z,97740.28
2023-07-12T01:42:47.635Z,97733.02
2023-07-12T01:45:18.028Z,97726.78
2023-07-12T01:47:48.445Z,97730.13
2023-07-12T01:50:18.950Z,97731.90
2023-07-12T01:52:49.300Z,97723.91
2023-07-12T01:55:19.831Z,97713.42
2023-07-12T01:57:50.716Z,97713.91
2023-07-12T02:00:21.144Z,97715.73
2023-07-12T02:02:51.424Z,97709.48
2023-07-12T02:05:23.005Z,97701.77
2023-07-12T02:07:57.248Z,97693.80
2023-07-12T02:10:29.011Z,97683.96
2023-07-12T02:12:59.276Z,97689.92
2023-07-12T02:15:29.644Z,97689.32
2023-07-12T02:18:00.318Z,97691.13
2023-07-12T02:20:30.752Z,97692.27
2023-07-12T02:23:01.195Z,97687.89
2023-07-12T02:25:31.505Z,97689.28
2023-07-12T02:28:01.870Z,97682.77
2023-07-12T02:30:33.409Z,97681.52
2023-07-12T02:33:03.764Z,97680.55
2023-07-12T02:35:34.825Z,97672.32
2023-07-12T02:38:05.547Z,97674.37
2023-07-12T02:40:35.805Z,97664.60
2023-07-12T02:43:06.064Z,97660.98
2023-07-12T02:45:36.391Z,97660.15
2023-07-12T02:48:07.550Z,97659.23
2023-07-12T02:50:37.803Z,97656.44
2023-07-12T02:53:18.071Z,97656.77
2023-07-12T02:55:52.453Z,97660.66
2023-07-12T02:58:23.662Z,97662.41
2023-07-12T03:00:59.179Z,97660.38
2023-07-12T03:03:30.566Z,97663.40
2023-07-12T03:06:06.228Z,97667.28
2023-07-12T03:08:36.835Z,97659.52
2023-07-12T03:11:08.234Z,97656.45
2023-07-12T03:13:38.900Z,97658.34
2023-07-12T03:16:10.305Z,97663.45
2023-07-12T03:18:40.530Z,97660.73
2023-07-12T03:21:12.189Z,97666.63
2023-07-12T03:23:43.896Z,97661.94
2023-07-12T03:26:14.285Z,97652.58
2023-07-12T03:28:44.585Z,97655.42
2023-07-12T03:31:17.173Z,97666.35
2023-07-12T03:33:46.599Z,97667.63
2023-07-12T03:36:17.449Z,97662.61
2023-07-12T03:38:47.675Z,97650.45
2023-07-12T03:41:19.809Z,97661.45
2023-07-12T03:43:50.596Z,97660.08
2023-07-12T03:46:21.215Z,97664.04
2023-07-12T03:48:51.467Z,97667.19
2023-07-12T03:51:23.792Z,97669.80
2023-07-12T03:53:54.498Z,97661.13
2023-07-12T03:56:24.729Z,97663.22
2023-07-12T03:58:55.082Z,97671.23
2023-07-12T04:01:25.376Z,97661.90
2023-07-12T04:03:55.669Z,97672.27
2023-07-12T04:06:25.951Z,97671.41
2023-07-12T04:08:56.339Z,97676.96
2023-07-12T04:11:28.373Z,97683.49
2023-07-12T04:14:00.290Z,97686.63
2023-07-12T04:16:31.380Z,97687.14
2023-07-12T04:19:02.152Z,97689.42
2023-07-12T04:21:32.520Z,97695.70
2023-07-12T04:24:02.715Z,97695.97
2023-07-12T04:26:33.985Z,97693.58
2023-07-12T04:29:04.311Z,97704.56
2023-07-12T04:31:34.777Z,97708.15
2023-07-12T04:34:05.105Z,97707.73
2023-07-12T04:36:35.639Z,97707.18
2023-07-12T04:39:06.440Z,97694.94
2023-07-12T04:41:36.843Z,97700.70
2023-07-12T04:44:07.192Z,97709.01
2023-07-12T04:46:39.366Z,97710.96
2023-07-12T04:49:10.164Z,97716.91
2023-07-12T04:51:40.385Z,97729.55
2023-07-12T04:54:10.810Z,97734.53
2023-07-12T04:56:41.056Z,97742.52
2023-07-12T04:59:11.199Z,97748.14
2023-07-12T05:01:41.426Z,97756.59
2023-07-12T05:04:11.787Z,97769.23
2023-07-12T05:06:41.998Z,97780.18
2023-07-12T05:09:12.531Z,97793.02
2023-07-12T05:11:42.641Z,97793.21
2023-07-12T05:14:12.787Z,97809.63
2023-07-12T05:16:42.959Z,97810.13
2023-07-12T05:19:13.311Z,97807.61
2023-07-12T05:21:43.502Z,97807.56
2023-07-12T05:24:13.702Z,97808.46
2023-07-12T05:26:43.937Z,97810.67
2023-07-12T05:29:15.573Z,97806.05
2023-07-12T05:31:46.147Z,97815.48
2023-07-12T05:34:16.525Z,97814.51
2023-07-12T05:36:46.937Z,97815.10
2023-07-12T05:39:17.219Z,97822.29
2023-07-12T05:41:47.385Z,97828.77
2023-07-12T05:44:17.694Z,97830.98
2023-07-12T05:46:47.918Z,97822.35
2023-07-12T05:49:18.136Z,97817.90
2023-07-12T05:51:48.394Z,97818.77
2023-07-12T05:54:18.591Z,97820.27
2023-07-12T05:56:48.882Z,97818.65
2023-07-12T05:59:20.025Z,97819.38
2023-07-12T06:01:50.251Z,97814.54
2023-07-12T06:04:21.986Z,97808.33
2023-07-12T06:06:53.864Z,97804.88
2023-07-12T06:09:24.047Z,97812.22
2023-07-12T06:11:54.221Z,97809.48
2023-07-12T06:14:24.606Z,97807.61
2023-07-12T06:16:55.058Z,97802.39
2023-07-12T06:19:25.374Z,97811.80
2023-07-12T06:21:55.767Z,97814.98
2023-07-12T06:24:26.372Z,97822.78
2023-07-12T06:26:56.994Z,97822.08
2023-07-12T06:29:27.319Z,97830.98
2023-07-12T06:31:57.603Z,97841.98
2023-07-12T06:34:27.837Z,97848.28
2023-07-12T06:36:58.747Z,97850.02
2023-07-12T06:39:29.417Z,97850.89
2023-07-12T06:41:59.771Z,97858.42
2023-07-12T06:44:35.774Z,97860.92
2023-07-12T06:47:06.423Z,97861.51
2023-07-12T06:49:36.985Z,97865.42
2023-07-12T06:52:08.365Z,97874.52
2023-07-12T06:54:38.836Z,97876.73
2023-07-12T06:57:09.561Z,97877.41
2023-07-12T06:59:40.042Z,97876.50
2023-07-12T07:02:12.188Z,97878.90
2023-07-12T07:04:42.384Z,97885.73
2023-07-12T07:07:12.544Z,97892.88
2023-07-12T07:09:42.744Z,97896.38
2023-07-12T07:12:13.093Z,97895.68
2023-07-12T07:14:43.318Z,97893.89
2023-07-12T07:17:13.616Z,97889.41
2023-07-12T07:19:44.026Z,97894.15
2023-07-12T07:22:14.290Z,97894.09
2023-07-12T07:24:44.994Z,97898.63
2023-07-12T07:27:15.422Z,97896.56
2023-07-12T07:29:45.612Z,97892.77
2023-07-12T07:32:15.829Z,97884.22
2023-07-12T07:34:46.201Z,97878.83
2023-07-12T07:37:17.064Z,97879.71
2023-07-12T07:39:47.329Z,97882.80
2023-07-12T07:42:17.564Z,97879.29
2023-07-12T07:44:47.747Z,97881.73
2023-07-12T07:47:18.283Z,97880.45
2023-07-12T07:49:48.444Z,97882.13
2023-07-12T07:52:18.844Z,97867.81
2023-07-12T07:54:49.127Z,97879.02
2023-07-12T07:57:19.328Z,97883.23
2023-07-12T07:59:49.548Z,97889.31
2023-07-12T08:02:19.995Z,97891.66
2023-07-12T08:04:50.471Z,97888.90
2023-07-12T08:07:20.755Z,97887.94
2023-07-12T08:09:51.871Z,97893.07
2023-07-12T08:12:22.386Z,97891.10
2023-07-12T08:14:52.857Z,97890.73
2023-07-12T08:17:23.635Z,97884.80
2023-07-12T08:19:54.266Z,97888.59
2023-07-12T08:22:25.412Z,97885.36
2023-07-12T08:24:55.653Z,97888.85
2023-07-12T08:27:25.975Z,97890.15
2023-07-12T08:29:56.448Z,97895.25
2023-07-12T08:34:59.765Z,97886.55
2023-07-12T08:37:31.694Z,97894.71
2023-07-12T08:40:00.741Z,97899.23
2023-07-12T08:42:42.411Z,97897.99
2023-07-12T08:45:22.724Z,97896.73
2023-07-12T08:47:55.799Z,97887.17
2023-07-12T08:50:27.613Z,97895.27
2023-07-12T08:52:56.529Z,97902.05
2023-07-12T08:55:29.291Z,97907.36
2023-07-12T08:58:20.634Z,97904.52
2023-07-12T09:00:58.439Z,97902.92
2023-07-12T09:03:28.743Z,97913.90
2023-07-12T09:05:59.979Z,97917.52
2023-07-12T09:08:35.590Z,97914.96
2023-07-12T09:11:06.208Z,97912.80
2023-07-12T09:13:39.154Z,97915.36
2023-07-12T09:16:31.046Z,97909.77
2023-07-12T09:19:03.395Z,97912.20
2023-07-12T09:21:39.613Z,97917.32
2023-07-12T09:24:15.096Z,97903.98
2023-07-12T09:26:46.426Z,97904.80
2023-07-12T09:29:17.942Z,97905.86
2023-07-12T09:31:49.032Z,97915.90
2023-07-12T09:34:23.800Z,97909.81
2023-07-12T09:36:59.969Z,97906.03
2023-07-12T09:39:30.756Z,97901.46
2023-07-12T09:42:03.361Z,97897.55
2023-07-12T09:44:34.198Z,97901.51
2023-07-12T09:47:07.629Z,97900.70
2023-07-12T09:49:42.520Z,97901.46
2023-07-12T09:52:19.718Z,97906.48
2023-07-12T09:54:54.853Z,97903.55
2023-07-12T09:57:40.396Z,97905.11
2023-07-12T10:00:24.296Z,97900.02
2023-07-12T10:03:11.784Z,97902.48
2023-07-12T10:05:46.828Z,97904.11
2023-07-12T10:08:18.617Z,97903.23
2023-07-12T10:10:55.660Z,97902.64
2023-07-12T10:13:37.632Z,97903.68
2023-07-12T10:16:12.035Z,97900.50
2023-07-12T10:18:42.848Z,97897.73
2023-07-12T10:21:15.811Z,97899.61
2023-07-12T10:23:51.285Z,97900.61
2023-07-12T10:26:22.029Z,97906.89
2023-07-12T10:28:57.161Z,97913.57
2023-07-12T10:31:35.993Z,97907.83
2023-07-12T10:34:14.592Z,97907.57
2023-07-12T10:36:46.212Z,97901.05
2023-07-12T10:39:16.438Z,97898.11
2023-07-12T10:41:48.780Z,97889.67
2023-07-12T10:44:22.268Z,97879.41
2023-07-12T10:46:58.604Z,97888.25
2023-07-12T10:49:44.857Z,97888.36
2023-07-12T10:52:28.615Z,97892.92
2023-07-12T10:55:20.221Z,97891.45
2023-07-12T10:57:51.823Z,97894.43
2023-07-12T11:00:25.096Z,97895.83
2023-07-12T11:03:04.847Z,97888.60
2023-07-12T11:05:44.625Z,97883.58
2023-07-12T11:08:42.077Z,97884.14
2023-07-12T11:11:42.288Z,97881.21
2023-07-12T11:14:26.621Z,97870.58
2023-07-12T11:17:15.827Z,97867.86
2023-07-12T11:19:49.814Z,97870.61
2023-07-12T11:22:22.213Z,97867.61
2023-07-12T11:24:57.082Z,97860.02
2023-07-12T11:27:54.982Z,97862.98
2023-07-12T11:30:39.335Z,97858.41
2023-07-12T11:33:17.357Z,97862.02
2023-07-12T11:35:50.137Z,97869.70
2023-07-12T11:38:25.604Z,97869.45
2023-07-12T11:40:58.909Z,97860.66
2023-07-12T11:43:35.682Z,97863.70
2023-07-12T11:46:16.862Z,97860.81
2023-07-12T11:48:57.875Z,97863.11
2023-07-12T11:51:36.655Z,97864.38
2023-07-12T11:54:21.113Z,97867.34
2023-07-12T11:56:53.640Z,97863.85
2023-07-12T11:59:31.146Z,97867.91
2023-07-12T12:02:03.658Z,97865.80
2023-07-12T12:04:35.787Z,97864.45
2023-07-12T12:07:17.649Z,97863.02
2023-07-12T12:09:49.691Z,97860.02
2023-07-12T12:12:24.677Z,97860.42
2023-07-12T12:14:57.386Z,97851.94
2023-07-12T12:17:33.445Z,97854.66
2023-07-12T12:20:16.064Z,97862.46
2023-07-12T12:22:55.498Z,97857.33
2023-07-12T12:25:31.025Z,97852.42
2023-07-12T12:28:07.694Z,97849.89
2023-07-12T12:30:40.207Z,97859.59
2023-07-12T12:33:27.718Z,97850.04
2023-07-12T12:45:11.584Z,97840.42
2023-07-12T12:57:48.856Z,97845.79
2023-07-12T12:59:46.362Z,97841.64
2023-07-12T13:06:29.367Z,97834.34
2023-07-12T13:21:56.055Z,97841.84
2023-07-12T13:24:26.408Z,97844.33
2023-07-12T13:26:56.577Z,97845.06
2023-07-12T13:29:26.808Z,97842.48
2023-07-12T13:31:57.043Z,97843.98
2023-07-12T13:36:06.755Z,97842.39
2023-07-12T13:37:27.500Z,97843.52
2023-07-12T13:39:58.928Z,97840.23
2023-07-12T13:42:42.946Z,97844.21
2023-07-12T13:45:16.920Z,97840.95
2023-07-12T13:47:50.871Z,97838.84
2023-07-12T13:50:22.108Z,97839.59
2023-07-12T13:52:52.381Z,97842.68
2023-07-12T13:55:24.498Z,97844.02
2023-07-12T13:57:54.730Z,97840.26
2023-07-12T14:00:26.948Z,97841.84
2023-07-12T14:08:36.734Z,97838.44
2023-07-12T14:10:58.038Z,97838.77
2023-07-12T14:13:28.220Z,97833.37
2023-07-12T14:15:58.368Z,97835.20
2023-07-12T14:18:28.649Z,97836.77
2023-07-12T14:20:59.039Z,97846.42
2023-07-12T14:23:29.853Z,97836.05
2023-07-12T14:26:00.067Z,97833.22
2023-07-12T14:28:40.400Z,97831.30
2023-07-12T14:31:15.529Z,97831.14
2023-07-12T14:33:46.572Z,97839.06
2023-07-12T14:36:16.145Z,97832.04
2023-07-12T14:38:47.244Z,97828.02
2023-07-12T14:41:21.420Z,97836.23
2023-07-12T14:43:52.507Z,97835.48
2023-07-12T14:46:22.733Z,97834.88
2023-07-12T14:48:52.958Z,97831.27
2023-07-12T14:51:25.540Z,97825.88
2023-07-12T14:53:55.709Z,97825.90
2023-07-12T14:56:26.729Z,97829.39
2023-07-12T14:58:57.400Z,97831.78
2023-07-12T15:01:29.908Z,97830.38
2023-07-12T15:04:08.560Z,97827.46
2023-07-12T15:06:39.217Z,97837.42
2023-07-12T15:09:14.020Z,97831.88
2023-07-12T15:11:47.849Z,97834.41
2023-07-12T15:14:18.391Z,97841.75
2023-07-12T15:16:53.185Z,97835.40
2023-07-12T15:19:23.471Z,97833.33
2023-07-12T15:21:54.491Z,97836.70
2023-07-12T15:24:23.260Z,97838.80
2023-07-12T15:26:53.464Z,97839.55
2023-07-12T15:29:24.329Z,97843.30
2023-07-12T15:31:53.239Z,97843.81
2023-07-12T15:34:23.757Z,97846.27
2023-07-12T15:37:16.632Z,97843.64
2023-07-12T15:39:47.330Z,97846.26
2023-07-12T15:42:20.919Z,97844.08
2023-07-12T15:44:53.039Z,97844.90
2023-07-12T15:47:23.682Z,97843.85
2023-07-12T15:49:53.993Z,97843.79
2023-07-12T15:52:28.196Z,97846.57
2023-07-12T15:54:58.419Z,97845.61
2023-07-12T15:57:29.017Z,97853.08
2023-07-12T15:59:59.794Z,97849.56
2023-07-12T16:02:30.385Z,97845.98
2023-07-12T16:05:00.583Z,97850.38
2023-07-12T16:07:30.874Z,97854.27
2023-07-12T16:10:01.119Z,97851.27
2023-07-12T16:12:31.357Z,97854.13
2023-07-12T16:15:01.737Z,97856.64
2023-07-12T16:17:32.025Z,97858.04
2023-07-12T16:20:02.346Z,97862.58
2023-07-12T16:22:32.527Z,97869.46
2023-07-12T16:25:03.939Z,97867.39
2023-07-12T16:27:34.223Z,97864.65
2023-07-12T16:30:05.886Z,97868.60
2023-07-12T16:32:36.224Z,97869.21
2023-07-12T16:35:09.546Z,97872.02
2023-07-12T16:37:39.856Z,97872.80
2023-07-12T16:40:12.003Z,97865.33
2023-07-12T16:42:44.907Z,97871.70
2023-07-12T16:45:28.782Z,97874.70
2023-07-12T16:47:59.534Z,97880.15
2023-07-12T16:50:30.220Z,97881.90
2023-07-12T16:53:00.456Z,97890.51
2023-07-12T16:55:34.150Z,97889.41
2023-07-12T16:58:06.521Z,97893.64
2023-07-12T17:00:36.896Z,97890.09
2023-07-12T17:03:07.784Z,97891.41
2023-07-12T17:05:38.340Z,97886.73
2023-07-12T17:08:15.628Z,97885.83
2023-07-12T17:10:46.458Z,97888.11
2023-07-12T17:13:18.167Z,97891.67
2023-07-12T17:15:49.553Z,97889.73
2023-07-12T17:18:21.928Z,97888.67
2023-07-12T17:20:53.685Z,97890.25
2023-07-12T17:23:27.396Z,97884.70
2023-07-12T17:26:01.299Z,97881.98
2023-07-12T17:28:33.914Z,97886.32
2023-07-12T17:31:13.819Z,97885.55
2023-07-12T17:33:44.091Z,97888.89
2023-07-12T17:36:15.650Z,97891.67
2023-07-12T17:38:46.462Z,97893.23
2023-07-12T17:41:20.330Z,97893.81
2023-07-12T17:43:50.986Z,97897.58
2023-07-12T17:46:21.542Z,97896.31
2023-07-12T17:48:53.286Z,97891.84
2023-07-12T17:51:25.396Z,97892.48
2023-07-12T17:53:56.585Z,97886.77
2023-07-12T17:56:26.939Z,97890.23
2023-07-12T17:58:57.212Z,97890.89
2023-07-12T18:01:30.530Z,97889.70
2023-07-12T18:04:01.695Z,97893.52
2023-07-12T18:06:34.188Z,97890.71
2023-07-12T18:09:05.583Z,97889.92
2023-07-12T18:11:41.117Z,97888.30
2023-07-12T18:14:18.156Z,97888.58
2023-07-12T18:16:48.784Z,97885.05
2023-07-12T18:19:19.282Z,97888.44
2023-07-12T18:21:50.242Z,97893.82
2023-07-12T18:24:22.655Z,97894.47
2023-07-12T18:26:53.116Z,97898.80
2023-07-12T18:29:23.446Z,97896.96
2023-07-12T18:31:54.384Z,97901.20
2023-07-12T18:34:25.118Z,97906.48
2023-07-12T18:36:55.573Z,97905.08
2023-07-12T18:39:26.018Z,97904.38
2023-07-12T18:41:58.593Z,97905.11
2023-07-12T18:44:30.530Z,97901.45
2023-07-12T18:47:02.511Z,97901.91
2023-07-12T18:49:33.576Z,97900.40
2023-07-12T18:52:04.700Z,97898.59
2023-07-12T18:54:35.063Z,97899.92
2023-07-12T18:57:05.739Z,97900.67
2023-07-12T18:59:37.059Z,97899.89
2023-07-12T19:02:16.385Z,97890.84
2023-07-12T19:04:47.195Z,97894.32
2023-07-12T19:07:22.493Z,97891.35
2023-07-12T19:09:53.377Z,97894.13
2023-07-12T19:12:24.937Z,97899.91
2023-07-12T19:15:02.041Z,97903.13
2023-07-12T19:17:33.132Z,97905.80
2023-07-12T19:20:03.896Z,97913.12
2023-07-12T19:22:34.327Z,97919.93
2023-07-12T19:25:05.165Z,97922.23
2023-07-12T19:27:43.184Z,97928.71
2023-07-12T19:30:17.694Z,97934.06
2023-07-12T19:32:48.066Z,97941.92
2023-07-12T19:35:25.140Z,97941.14
2023-07-12T19:37:56.192Z,97945.04
2023-07-12T19:40:28.716Z,97954.14
2023-07-12T19:42:59.749Z,97956.89
2023-07-12T19:45:30.432Z,97960.01
2023-07-12T19:48:01.056Z,97970.31
2023-07-12T19:50:33.316Z,97975.83
2023-07-12T19:53:06.578Z,97984.54
2023-07-12T19:55:36.998Z,97979.41
2023-07-12T19:58:07.313Z,97982.75
2023-07-12T20:00:37.724Z,97985.96
2023-07-12T20:03:09.523Z,97998.05
2023-07-12T20:05:41.088Z,97998.51
2023-07-12T20:08:11.444Z,98006.76
2023-07-12T20:10:41.795Z,98005.54
2023-07-12T20:13:12.215Z,98002.55
2023-07-12T20:15:42.514Z,98006.08
2023-07-12T20:18:12.879Z,98002.77
2023-07-12T20:20:53.469Z,98000.63
2023-07-12T20:23:24.029Z,98000.75
2023-07-12T20:25:56.634Z,98003.88
2023-07-12T20:28:29.426Z,98005.93
2023-07-12T20:31:00.800Z,98001.98
2023-07-12T20:33:31.504Z,97995.73
2023-07-12T20:36:01.700Z,97994.63
2023-07-12T20:38:32.402Z,97991.61
2023-07-12T20:41:02.716Z,97998.73
2023-07-12T20:43:33.329Z,97997.39
2023-07-12T20:46:04.531Z,98002.71
2023-07-12T20:48:37.149Z,98005.39
2023-07-12T20:51:06.820Z,97997.34
2023-07-12T20:53:37.064Z,97999.61
2023-07-12T20:56:08.538Z,98006.71
2023-07-12T20:58:39.046Z,98007.14
2023-07-12T21:01:16.915Z,98001.35
2023-07-12T21:03:48.122Z,98008.60
2023-07-12T21:06:19.054Z,98010.04
2023-07-12T21:08:49.806Z,98009.95
2023-07-12T21:11:21.528Z,98010.79
2023-07-12T21:13:52.799Z,98011.27
2023-07-12T21:16:23.664Z,98004.77
2023-07-12T21:18:54.423Z,98004.38
2023-07-12T21:21:25.108Z,98006.64
2023-07-12T21:23:55.819Z,98011.24
2023-07-12T21:26:27.236Z,98016.18
2023-07-12T21:28:57.874Z,98017.94
2023-07-12T21:31:28.733Z,98014.34
2023-07-12T21:33:59.728Z,98014.69
2023-07-12T21:36:30.848Z,98020.20
2023-07-12T21:39:01.660Z,98024.17
2023-07-12T21:41:32.525Z,98036.74
2023-07-12T21:44:03.038Z,98036.20
2023-07-12T21:46:33.566Z,98041.23
2023-07-12T21:49:04.264Z,98046.30
2023-07-12T21:51:35.318Z,98042.60
2023-07-12T21:54:07.147Z,98041.90
2023-07-12T21:56:37.750Z,98044.00
2023-07-12T21:59:08.231Z,98056.79
2023-07-12T22:01:39.136Z,98059.61
2023-07-12T22:04:09.913Z,98057.33
2023-07-12T22:06:43.772Z,98058.41
2023-07-12T22:09:14.575Z,98058.36
2023-07-12T22:11:45.248Z,98066.34
2023-07-12T22:14:16.011Z,98066.20
2023-07-12T22:16:47.094Z,98065.10
2023-07-12T22:19:17.982Z,98066.41
2023-07-12T22:21:53.018Z,98076.76
2023-07-12T22:24:23.499Z,98079.57
2023-07-12T22:26:54.244Z,98084.54
2023-07-12T22:29:24.771Z,98087.90
2023-07-12T22:31:55.397Z,98085.84
2023-07-12T22:34:25.929Z,98096.21
2023-07-12T22:36:57.052Z,98109.16
2023-07-12T22:39:28.307Z,98117.98
2023-07-12T22:41:59.423Z,98120.20
2023-07-12T22:44:30.046Z,98132.45
2023-07-12T22:47:00.666Z,98134.38
2023-07-12T22:49:31.144Z,98136.71
2023-07-12T22:52:01.827Z,98138.40
2023-07-12T22:54:32.591Z,98140.46
2023-07-12T22:57:03.273Z,98142.91
2023-07-12T22:59:34.452Z,98145.03
2023-07-12T23:02:05.215Z,98152.41
2023-07-12T23:04:36.429Z,98157.39
2023-07-12T23:07:07.766Z,98167.70
2023-07-12T23:09:38.385Z,98170.63
2023-07-12T23:12:11.266Z,98173.19
2023-07-12T23:14:44.683Z,98176.91
2023-07-12T23:17:15.558Z,98183.81
2023-07-12T23:19:46.348Z,98184.52
2023-07-12T23:22:18.916Z,98189.38
2023-07-12T23:24:50.295Z,98194.64
2023-07-12T23:27:21.303Z,98195.02
2023-07-12T23:29:51.994Z,98193.98
2023-07-12T23:32:22.276Z,98196.23
2023-07-12T23:34:52.641Z,98199.52
2023-07-12T23:37:31.211Z,98201.68
2023-07-12T23:40:01.453Z,98200.84
2023-07-12T23:42:31.651Z,98201.08
2023-07-12T23:45:01.857Z,98200.55
2023-07-12T23:47:33.188Z,98202.56
2023-07-12T23:50:04.240Z,98205.52
2023-07-12T23:52:34.557Z,98208.10
2023-07-12T23:55:05.784Z,98210.08
2023-07-12T23:57:36.167Z,98208.48
